Time;durP1;ratioP1;P1;durP2;ratioP2;P2;SDS_P1;SDS_P2;PMS_P1;PMS_P2;Temp;Humidity;BMP_temperature;BMP_pressure;BME280_temperature;BME280_humidity;BME280_pressure;Samples;Min_cycle;Max_cycle;Signal;HPM_P1;HPM_P2
2023/08/30 00:00:04;;;;;;;4.87;1.40;;;;;;;;;;5116974;28;20218;-65
2023/08/30 00:02:32;;;;;;;0.97;0.97;;;;;;;;;;5118179;28;20281;-66
2023/08/30 00:05:00;;;;;;;1.00;1.00;;;;;;;;;;5118486;28;20211;-67
2023/08/30 00:07:28;;;;;;;1.73;1.50;;;;;;;;;;5118502;28;20202;-66
2023/08/30 00:09:56;;;;;;;3.23;1.20;;;;;;;;;;5118232;28;20232;-66
2023/08/30 00:12:26;;;;;;;2.53;1.27;;;;;;;;;;5117997;28;20208;-67
2023/08/30 00:14:54;;;;;;;4.23;2.80;;;;;;;;;;5117834;28;20228;-66
2023/08/30 00:17:22;;;;;;;2.83;1.17;;;;;;;;;;5112462;28;20209;-66
2023/08/30 00:19:52;;;;;;;1.23;1.07;;;;;;;;;;5131975;28;20209;-66
2023/08/30 00:22:22;;;;;;;1.10;1.00;;;;;;;;;;5104669;28;20205;-67
2023/08/30 00:24:50;;;;;;;1.57;1.10;;;;;;;;;;5112942;28;20227;-66
2023/08/30 00:27:17;;;;;;;3.10;1.33;;;;;;;;;;5116014;28;20612;-66
2023/08/30 00:29:47;;;;;;;1.43;0.97;;;;;;;;;;5100139;28;20236;-66
2023/08/30 00:32:15;;;;;;;1.33;1.20;;;;;;;;;;5104149;28;20209;-65
2023/08/30 00:34:43;;;;;;;1.13;1.03;;;;;;;;;;5111454;28;20196;-66
2023/08/30 00:37:11;;;;;;;2.30;1.50;;;;;;;;;;5107763;28;20208;-65
2023/08/30 00:39:39;;;;;;;1.40;1.20;;;;;;;;;;5112525;28;20206;-66
2023/08/30 00:42:07;;;;;;;2.07;1.10;;;;;;;;;;5122277;28;20208;-66
2023/08/30 00:44:35;;;;;;;1.77;1.13;;;;;;;;;;5111914;28;20205;-64
2023/08/30 00:47:05;;;;;;;2.40;1.30;;;;;;;;;;5108027;28;20202;-65
2023/08/30 00:49:33;;;;;;;1.43;1.03;;;;;;;;;;5112390;28;20221;-66
2023/08/30 00:52:03;;;;;;;2.90;1.20;;;;;;;;;;5117845;28;20214;-66
2023/08/30 00:54:31;;;;;;;1.20;1.10;;;;;;;;;;5113291;28;20209;-67
2023/08/30 00:57:01;;;;;;;2.43;1.40;;;;;;;;;;5100713;28;20262;-66
2023/08/30 00:59:30;;;;;;;1.43;1.20;;;;;;;;;;5119118;28;20208;-67
2023/08/30 01:01:58;;;;;;;2.10;1.10;;;;;;;;;;5102833;28;20391;-66
2023/08/30 01:04:28;;;;;;;1.30;1.07;;;;;;;;;;5102663;28;20204;-65
2023/08/30 01:06:56;;;;;;;1.63;1.40;;;;;;;;;;5101238;28;20197;-66
2023/08/30 01:09:25;;;;;;;0.97;0.80;;;;;;;;;;5105304;28;20587;-66
2023/08/30 01:11:58;;;;;;;1.60;1.17;;;;;;;;;;5119245;28;20228;-65
2023/08/30 01:14:29;;;;;;;1.30;1.03;;;;;;;;;;5120464;28;20265;-66
2023/08/30 01:16:57;;;;;;;1.30;1.20;;;;;;;;;;5121306;28;20329;-66
2023/08/30 01:19:37;;;;;;;1.23;0.90;;;;;;;;;;5107152;27;20209;-66
2023/08/30 01:22:10;;;;;;;2.57;1.27;;;;;;;;;;5109616;28;20205;-65
2023/08/30 01:24:43;;;;;;;1.23;1.13;;;;;;;;;;5110363;28;20236;-64
2023/08/30 01:27:14;;;;;;;2.80;1.23;;;;;;;;;;5117547;28;20587;-64
2023/08/30 01:29:44;;;;;;;1.67;1.10;;;;;;;;;;5109970;28;20286;-64
2023/08/30 01:32:13;;;;;;;1.00;1.00;;;;;;;;;;5113476;28;20208;-65
2023/08/30 01:34:45;;;;;;;1.17;1.07;;;;;;;;;;5110438;28;20232;-66
2023/08/30 01:37:13;;;;;;;2.97;1.20;;;;;;;;;;5108841;28;20246;-67
2023/08/30 01:39:42;;;;;;;1.43;1.20;;;;;;;;;;5109373;28;20202;-66
2023/08/30 01:42:14;;;;;;;2.07;1.33;;;;;;;;;;5105595;28;20206;-66
2023/08/30 01:44:44;;;;;;;1.83;1.20;;;;;;;;;;5110185;28;20204;-66
2023/08/30 01:47:13;;;;;;;1.10;0.83;;;;;;;;;;5120776;27;20204;-66
2023/08/30 01:49:41;;;;;;;1.43;1.20;;;;;;;;;;5120787;28;20225;-66
2023/08/30 01:52:09;;;;;;;2.53;1.40;;;;;;;;;;5120868;28;20204;-66
2023/08/30 01:54:38;;;;;;;1.90;1.10;;;;;;;;;;5120899;28;20213;-66
2023/08/30 01:57:06;;;;;;;3.53;1.13;;;;;;;;;;5120535;28;20729;-66
2023/08/30 01:59:36;;;;;;;3.00;1.30;;;;;;;;;;5119080;28;20255;-65
2023/08/30 02:02:04;;;;;;;0.80;0.80;;;;;;;;;;5120176;28;20306;-65
2023/08/30 02:04:32;;;;;;;1.10;1.00;;;;;;;;;;5120475;28;20695;-66
2023/08/30 02:07:03;;;;;;;1.43;1.20;;;;;;;;;;5120408;28;20212;-66
2023/08/30 02:09:36;;;;;;;1.87;1.00;;;;;;;;;;5120226;28;20205;-66
2023/08/30 02:12:08;;;;;;;3.53;1.40;;;;;;;;;;5120193;27;20205;-67
2023/08/30 02:14:38;;;;;;;2.13;0.87;;;;;;;;;;5120312;28;20212;-66
2023/08/30 02:17:06;;;;;;;3.23;1.10;;;;;;;;;;5119375;28;20209;-66
2023/08/30 02:19:34;;;;;;;1.30;1.20;;;;;;;;;;5120371;28;20208;-65
2023/08/30 02:22:03;;;;;;;2.13;1.17;;;;;;;;;;5120360;28;20205;-65
2023/08/30 02:24:31;;;;;;;1.50;1.40;;;;;;;;;;5120139;28;20204;-65
2023/08/30 02:26:59;;;;;;;2.57;1.30;;;;;;;;;;5119983;28;20297;-65
2023/08/30 02:29:27;;;;;;;1.40;1.23;;;;;;;;;;5119970;28;20254;-65
2023/08/30 02:31:56;;;;;;;2.93;1.47;;;;;;;;;;5114019;28;20274;-65
2023/08/30 02:34:24;;;;;;;1.53;1.10;;;;;;;;;;5110077;28;20517;-65
2023/08/30 02:36:52;;;;;;;2.17;1.10;;;;;;;;;;5102287;28;20267;-65
2023/08/30 02:39:20;;;;;;;1.83;1.23;;;;;;;;;;5101381;28;20251;-66
2023/08/30 02:41:48;;;;;;;2.17;1.47;;;;;;;;;;5117674;28;20221;-65
2023/08/30 02:44:16;;;;;;;1.57;1.40;;;;;;;;;;5110975;28;20225;-66
2023/08/30 02:46:44;;;;;;;2.20;1.60;;;;;;;;;;5114519;28;20570;-66
2023/08/30 02:49:13;;;;;;;1.50;1.30;;;;;;;;;;5115319;28;20201;-66
2023/08/30 02:51:41;;;;;;;1.30;1.20;;;;;;;;;;5116789;28;20232;-66
2023/08/30 02:54:12;;;;;;;1.13;1.03;;;;;;;;;;5111279;28;20539;-65
2023/08/30 02:56:40;;;;;;;1.47;1.30;;;;;;;;;;5113765;28;20291;-66
2023/08/30 02:59:08;;;;;;;1.10;1.10;;;;;;;;;;5105387;28;20226;-66
2023/08/30 03:01:37;;;;;;;3.00;1.40;;;;;;;;;;5119173;28;20289;-65
2023/08/30 03:04:05;;;;;;;1.50;1.07;;;;;;;;;;5108064;28;20274;-65
2023/08/30 03:06:35;;;;;;;2.77;1.27;;;;;;;;;;5109842;28;20554;-65
2023/08/30 03:09:04;;;;;;;1.30;1.20;;;;;;;;;;5119041;28;20200;-66
2023/08/30 03:11:32;;;;;;;1.13;1.00;;;;;;;;;;5119037;28;20277;-66
2023/08/30 03:14:00;;;;;;;1.40;1.30;;;;;;;;;;5119093;28;20208;-66
2023/08/30 03:16:28;;;;;;;1.97;1.30;;;;;;;;;;5119271;28;20217;-66
2023/08/30 03:18:56;;;;;;;1.40;1.30;;;;;;;;;;5119341;28;20216;-66
2023/08/30 03:21:24;;;;;;;1.23;1.13;;;;;;;;;;5119043;28;20225;-66
2023/08/30 03:23:54;;;;;;;2.73;1.50;;;;;;;;;;5113321;28;20668;-65
2023/08/30 03:26:22;;;;;;;1.27;1.17;;;;;;;;;;5102651;28;20204;-65
2023/08/30 03:28:50;;;;;;;1.57;1.37;;;;;;;;;;5100333;28;20661;-67
2023/08/30 03:31:19;;;;;;;5.70;1.37;;;;;;;;;;5106270;28;20262;-65
2023/08/30 03:33:47;;;;;;;2.17;1.80;;;;;;;;;;5107279;28;20201;-65
2023/08/30 03:36:16;;;;;;;1.87;1.20;;;;;;;;;;5111782;28;20211;-66
2023/08/30 03:38:44;;;;;;;1.33;1.23;;;;;;;;;;5114387;28;20198;-66
2023/08/30 03:41:14;;;;;;;2.07;1.07;;;;;;;;;;5112450;28;20228;-65
2023/08/30 03:43:43;;;;;;;4.03;1.40;;;;;;;;;;5101874;28;20266;-65
2023/08/30 03:46:11;;;;;;;0.90;0.90;;;;;;;;;;5101473;28;20198;-65
2023/08/30 03:48:40;;;;;;;3.67;1.27;;;;;;;;;;5108277;28;20202;-65
2023/08/30 03:51:08;;;;;;;3.10;1.47;;;;;;;;;;5109171;28;20640;-65
2023/08/30 03:53:36;;;;;;;1.13;1.00;;;;;;;;;;5106268;28;20204;-66
2023/08/30 03:56:04;;;;;;;1.40;1.17;;;;;;;;;;5108164;28;20213;-65
2023/08/30 03:58:34;;;;;;;1.10;1.10;;;;;;;;;;5112221;28;20653;-65
2023/08/30 04:01:02;;;;;;;1.30;1.20;;;;;;;;;;5117647;28;20232;-65
2023/08/30 04:03:30;;;;;;;2.27;2.07;;;;;;;;;;5118323;28;20230;-66
2023/08/30 04:05:58;;;;;;;2.63;1.70;;;;;;;;;;5114315;28;20205;-65
2023/08/30 04:08:26;;;;;;;2.23;1.17;;;;;;;;;;5118379;28;20215;-65
2023/08/30 04:10:54;;;;;;;1.40;1.00;;;;;;;;;;5117881;28;20676;-65
2023/08/30 04:13:22;;;;;;;3.47;1.20;;;;;;;;;;5116935;28;20258;-65
2023/08/30 04:15:52;;;;;;;2.73;1.40;;;;;;;;;;5115102;28;20673;-64
2023/08/30 04:18:20;;;;;;;2.30;1.30;;;;;;;;;;5117668;28;20197;-66
2023/08/30 04:20:48;;;;;;;1.30;1.20;;;;;;;;;;5117832;28;20273;-65
2023/08/30 04:23:16;;;;;;;1.57;1.20;;;;;;;;;;5120837;28;20208;-66
2023/08/30 04:25:45;;;;;;;4.57;1.30;;;;;;;;;;5117737;28;20218;-66
2023/08/30 04:28:13;;;;;;;1.27;1.17;;;;;;;;;;5118141;28;20201;-66
2023/08/30 04:30:41;;;;;;;2.30;1.40;;;;;;;;;;5102421;28;20240;-66
2023/08/30 04:33:11;;;;;;;2.67;1.40;;;;;;;;;;5113881;28;20211;-65
2023/08/30 04:35:39;;;;;;;1.53;1.20;;;;;;;;;;5116736;28;20621;-67
2023/08/30 04:38:07;;;;;;;1.10;1.10;;;;;;;;;;5114763;28;20196;-65
2023/08/30 04:40:36;;;;;;;1.77;1.30;;;;;;;;;;5110294;28;20217;-66
2023/08/30 04:43:04;;;;;;;1.33;1.23;;;;;;;;;;5114058;28;20526;-66
2023/08/30 04:45:32;;;;;;;1.53;1.43;;;;;;;;;;5110816;28;20201;-66
2023/08/30 04:48:01;;;;;;;2.07;1.47;;;;;;;;;;5117387;28;20197;-66
2023/08/30 04:50:31;;;;;;;1.20;1.10;;;;;;;;;;5111111;28;20216;-66
2023/08/30 04:52:59;;;;;;;1.27;1.00;;;;;;;;;;5117446;28;20216;-66
2023/08/30 04:55:29;;;;;;;1.13;1.03;;;;;;;;;;5111302;28;20601;-66
2023/08/30 04:57:57;;;;;;;1.63;1.33;;;;;;;;;;5117193;28;20196;-66
2023/08/30 05:00:25;;;;;;;2.33;1.40;;;;;;;;;;5107634;28;20242;-65
2023/08/30 05:02:53;;;;;;;3.50;1.53;;;;;;;;;;5109916;28;20250;-66
2023/08/30 05:05:21;;;;;;;3.30;1.27;;;;;;;;;;5115454;28;20287;-66
2023/08/30 05:07:51;;;;;;;3.47;2.47;;;;;;;;;;5100709;28;20201;-66
2023/08/30 05:10:19;;;;;;;4.60;1.17;;;;;;;;;;5095432;28;20217;-66
2023/08/30 05:12:51;;;;;;;1.53;1.30;;;;;;;;;;5105852;28;20358;-66
2023/08/30 05:15:20;;;;;;;1.90;1.20;;;;;;;;;;5107730;28;20197;-66
2023/08/30 05:17:48;;;;;;;2.07;1.40;;;;;;;;;;5110759;28;20201;-66
2023/08/30 05:20:16;;;;;;;1.73;1.20;;;;;;;;;;5103737;28;20227;-66
2023/08/30 05:22:44;;;;;;;1.40;1.10;;;;;;;;;;5114732;28;20200;-66
2023/08/30 05:25:13;;;;;;;1.30;1.20;;;;;;;;;;5106771;28;20197;-66
2023/08/30 05:27:41;;;;;;;3.70;1.40;;;;;;;;;;5121053;28;20205;-66
2023/08/30 05:30:10;;;;;;;1.47;1.20;;;;;;;;;;5107149;28;20243;-66
2023/08/30 05:32:38;;;;;;;1.23;1.10;;;;;;;;;;5107533;28;20221;-65
2023/08/30 05:35:06;;;;;;;1.53;1.20;;;;;;;;;;5103492;28;20205;-65
2023/08/30 05:37:34;;;;;;;1.80;1.60;;;;;;;;;;5103523;28;20236;-65
2023/08/30 05:40:03;;;;;;;1.33;1.20;;;;;;;;;;5107374;28;20220;-65
2023/08/30 05:42:33;;;;;;;2.13;1.50;;;;;;;;;;5120648;28;20208;-66
2023/08/30 05:45:01;;;;;;;1.60;1.30;;;;;;;;;;5116221;28;20200;-65
2023/08/30 05:47:29;;;;;;;1.37;1.27;;;;;;;;;;5120989;28;20213;-65
2023/08/30 05:49:58;;;;;;;1.83;1.40;;;;;;;;;;5116891;28;20224;-64
2023/08/30 05:52:26;;;;;;;1.00;1.00;;;;;;;;;;5117728;28;20756;-66
2023/08/30 05:54:56;;;;;;;1.27;1.17;;;;;;;;;;5114917;28;20208;-66
2023/08/30 05:57:25;;;;;;;1.90;1.40;;;;;;;;;;5120068;27;20226;-65
2023/08/30 05:59:54;;;;;;;2.70;1.33;;;;;;;;;;5115098;28;20223;-65
2023/08/30 06:02:22;;;;;;;1.50;1.40;;;;;;;;;;5119999;28;20235;-65
2023/08/30 06:04:50;;;;;;;1.40;1.30;;;;;;;;;;5120497;28;20208;-65
2023/08/30 06:07:18;;;;;;;4.27;1.40;;;;;;;;;;5120572;28;20257;-65
2023/08/30 06:09:46;;;;;;;5.93;1.00;;;;;;;;;;5120033;28;20681;-66
2023/08/30 06:12:14;;;;;;;1.53;1.03;;;;;;;;;;5120378;28;20270;-64
2023/08/30 06:14:43;;;;;;;1.47;1.37;;;;;;;;;;5109955;28;20265;-63
2023/08/30 06:17:12;;;;;;;3.03;1.43;;;;;;;;;;5120295;28;20197;-64
2023/08/30 06:19:40;;;;;;;4.00;1.40;;;;;;;;;;5120030;28;20345;-64
2023/08/30 06:22:08;;;;;;;1.53;1.20;;;;;;;;;;5120026;27;20204;-63
2023/08/30 06:24:36;;;;;;;1.97;1.20;;;;;;;;;;5119823;28;20201;-64
2023/08/30 06:27:05;;;;;;;1.80;1.43;;;;;;;;;;5119908;28;20212;-64
2023/08/30 06:29:33;;;;;;;4.00;1.47;;;;;;;;;;5119238;28;20220;-64
2023/08/30 06:32:01;;;;;;;1.33;0.87;;;;;;;;;;5118348;27;20231;-64
2023/08/30 06:34:30;;;;;;;1.23;1.13;;;;;;;;;;5099105;28;20201;-66
2023/08/30 06:36:58;;;;;;;1.60;1.10;;;;;;;;;;5101707;28;20206;-66
2023/08/30 06:39:26;;;;;;;1.67;1.20;;;;;;;;;;5103645;28;20208;-65
2023/08/30 06:41:54;;;;;;;1.40;1.30;;;;;;;;;;5119474;28;20217;-64
2023/08/30 06:44:22;;;;;;;3.13;1.73;;;;;;;;;;5107898;28;20629;-65
2023/08/30 06:46:50;;;;;;;1.80;1.70;;;;;;;;;;5104139;28;20201;-65
2023/08/30 06:49:18;;;;;;;2.30;1.50;;;;;;;;;;5103405;28;20200;-65
2023/08/30 06:51:48;;;;;;;3.70;1.47;;;;;;;;;;5116126;28;20311;-65
2023/08/30 06:54:16;;;;;;;2.00;1.40;;;;;;;;;;5115944;28;20246;-66
2023/08/30 06:56:46;;;;;;;3.00;1.60;;;;;;;;;;5111026;28;20205;-69
2023/08/30 06:59:14;;;;;;;3.50;1.27;;;;;;;;;;5107121;28;20537;-70
2023/08/30 07:01:43;;;;;;;3.27;1.43;;;;;;;;;;5101308;28;20241;-71
2023/08/30 07:04:12;;;;;;;2.50;1.63;;;;;;;;;;5100430;28;20201;-66
2023/08/30 07:06:40;;;;;;;3.77;2.43;;;;;;;;;;5100262;28;20202;-69
2023/08/30 07:09:09;;;;;;;2.60;1.77;;;;;;;;;;5104134;28;20254;-71
2023/08/30 07:11:37;;;;;;;3.30;1.30;;;;;;;;;;5101314;28;20225;-72
2023/08/30 07:14:05;;;;;;;2.23;1.27;;;;;;;;;;5101670;28;20220;-72
2023/08/30 07:16:33;;;;;;;2.57;1.20;;;;;;;;;;5118889;28;20567;-70
2023/08/30 07:19:02;;;;;;;2.93;1.43;;;;;;;;;;5110330;28;20198;-69
2023/08/30 07:21:30;;;;;;;1.80;1.07;;;;;;;;;;5113984;28;20250;-72
2023/08/30 07:23:58;;;;;;;2.03;1.30;;;;;;;;;;5110700;28;20208;-71
2023/08/30 07:26:27;;;;;;;3.73;1.27;;;;;;;;;;5112708;28;20196;-71
2023/08/30 07:28:55;;;;;;;2.10;1.30;;;;;;;;;;5110675;28;20231;-70
2023/08/30 07:31:23;;;;;;;1.97;1.43;;;;;;;;;;5111146;28;20228;-70
2023/08/30 07:33:51;;;;;;;3.27;1.53;;;;;;;;;;5113745;27;20225;-70
2023/08/30 07:36:19;;;;;;;3.60;1.40;;;;;;;;;;5107781;28;20208;-71
2023/08/30 07:38:55;;;;;;;1.20;1.13;;;;;;;;;;5103029;28;20212;-70
2023/08/30 07:41:23;;;;;;;1.23;1.00;;;;;;;;;;5117039;28;20602;-70
2023/08/30 07:43:52;;;;;;;3.37;1.53;;;;;;;;;;5098873;28;20189;-70
2023/08/30 07:46:21;;;;;;;3.60;0.90;;;;;;;;;;5102893;28;20193;-67
2023/08/30 07:48:49;;;;;;;3.53;1.50;;;;;;;;;;5116537;28;20204;-66
2023/08/30 07:51:17;;;;;;;4.07;2.77;;;;;;;;;;5114738;28;20724;-67
2023/08/30 07:53:45;;;;;;;1.80;1.40;;;;;;;;;;5115266;28;20213;-67
2023/08/30 07:56:13;;;;;;;1.37;1.00;;;;;;;;;;5109631;28;20201;-69
2023/08/30 07:58:42;;;;;;;1.27;1.17;;;;;;;;;;5112172;28;20540;-69
2023/08/30 08:01:11;;;;;;;1.60;1.30;;;;;;;;;;5104432;28;20283;-67
2023/08/30 08:03:40;;;;;;;2.60;1.30;;;;;;;;;;5114904;27;20203;-69
2023/08/30 08:06:23;;;;;;;1.77;1.33;;;;;;;;;;5118389;28;20201;-67
2023/08/30 08:08:51;;;;;;;5.70;2.00;;;;;;;;;;5119133;27;20698;-72
2023/08/30 08:11:19;;;;;;;1.60;1.50;;;;;;;;;;5115794;28;20228;-68
2023/08/30 08:13:47;;;;;;;4.43;1.90;;;;;;;;;;5115197;28;20307;-67
2023/08/30 08:16:16;;;;;;;1.70;1.33;;;;;;;;;;5118086;28;20254;-69
2023/08/30 08:18:44;;;;;;;1.80;1.33;;;;;;;;;;5119164;27;20193;-65
2023/08/30 08:21:12;;;;;;;1.20;1.10;;;;;;;;;;5117695;28;20220;-70
2023/08/30 08:23:40;;;;;;;3.77;1.50;;;;;;;;;;5117740;28;20205;-71
2023/08/30 08:26:09;;;;;;;1.80;1.70;;;;;;;;;;5117711;28;20201;-72
2023/08/30 08:28:37;;;;;;;3.13;1.60;;;;;;;;;;5109952;28;20212;-73
2023/08/30 08:31:06;;;;;;;1.80;1.53;;;;;;;;;;5097554;28;20225;-65
2023/08/30 08:33:38;;;;;;;4.27;1.60;;;;;;;;;;5102112;28;20221;-66
2023/08/30 08:36:07;;;;;;;2.17;1.60;;;;;;;;;;5111892;28;20201;-65
2023/08/30 08:38:38;;;;;;;3.03;1.63;;;;;;;;;;5100585;28;20209;-67
2023/08/30 08:41:12;;;;;;;1.50;1.40;;;;;;;;;;5091519;28;20228;-66
2023/08/30 08:43:40;;;;;;;3.00;1.50;;;;;;;;;;5091901;28;20194;-66
2023/08/30 08:46:11;;;;;;;2.30;1.47;;;;;;;;;;5095071;28;20202;-64
2023/08/30 08:48:42;;;;;;;12.10;4.50;;;;;;;;;;5097070;28;20197;-66
2023/08/30 08:51:10;;;;;;;2.60;2.00;;;;;;;;;;5110938;28;20228;-65
2023/08/30 08:53:38;;;;;;;3.00;1.80;;;;;;;;;;5101788;27;20208;-66
2023/08/30 08:56:07;;;;;;;2.00;1.80;;;;;;;;;;5097849;28;20266;-65
2023/08/30 08:58:37;;;;;;;2.47;1.70;;;;;;;;;;5110249;28;20202;-66
2023/08/30 09:01:06;;;;;;;1.90;1.50;;;;;;;;;;5107150;28;20228;-65
2023/08/30 09:03:43;;;;;;;2.20;1.40;;;;;;;;;;5099996;28;20201;-65
2023/08/30 09:06:11;;;;;;;1.80;1.70;;;;;;;;;;5102062;28;20208;-67
2023/08/30 09:08:39;;;;;;;1.77;1.40;;;;;;;;;;5102477;28;20227;-66
2023/08/30 09:11:09;;;;;;;2.00;1.40;;;;;;;;;;5095485;28;20217;-66
2023/08/30 09:13:37;;;;;;;1.70;1.40;;;;;;;;;;5095699;28;20633;-67
2023/08/30 09:16:12;;;;;;;1.63;1.53;;;;;;;;;;5099121;28;20197;-66
2023/08/30 09:18:40;;;;;;;1.87;1.67;;;;;;;;;;5101308;28;20630;-66
2023/08/30 09:21:13;;;;;;;3.23;1.50;;;;;;;;;;5100361;28;20244;-66
2023/08/30 09:23:40;;;;;;;2.53;1.53;;;;;;;;;;5100833;28;20201;-67
2023/08/30 09:26:09;;;;;;;3.23;1.50;;;;;;;;;;5095244;28;20194;-66
2023/08/30 09:28:43;;;;;;;1.87;1.77;;;;;;;;;;5099620;28;20205;-66
2023/08/30 09:31:18;;;;;;;1.97;1.77;;;;;;;;;;5099676;28;20220;-66
2023/08/30 09:33:50;;;;;;;4.27;1.60;;;;;;;;;;5101452;28;20244;-72
2023/08/30 09:36:19;;;;;;;1.87;1.70;;;;;;;;;;5099528;28;20209;-71
2023/08/30 09:38:52;;;;;;;2.50;1.60;;;;;;;;;;5112174;28;20310;-69
2023/08/30 09:41:20;;;;;;;1.50;1.40;;;;;;;;;;5104059;27;20243;-70
2023/08/30 09:43:48;;;;;;;3.27;1.70;;;;;;;;;;5099003;28;20197;-69
2023/08/30 09:46:24;;;;;;;2.43;1.50;;;;;;;;;;5101351;28;20220;-68
2023/08/30 09:49:04;;;;;;;2.73;1.93;;;;;;;;;;5099050;28;20197;-71
2023/08/30 09:51:34;;;;;;;1.97;1.83;;;;;;;;;;5111202;28;20233;-69
2023/08/30 09:54:05;;;;;;;1.73;1.63;;;;;;;;;;5096110;28;20224;-70
2023/08/30 09:56:38;;;;;;;2.70;1.80;;;;;;;;;;5099573;28;20193;-68
2023/08/30 09:59:07;;;;;;;2.13;1.57;;;;;;;;;;5114480;28;20659;-69
2023/08/30 10:01:35;;;;;;;2.23;1.43;;;;;;;;;;5120725;28;20228;-71
2023/08/30 10:04:04;;;;;;;2.30;1.50;;;;;;;;;;5097417;28;20547;-70
2023/08/30 10:06:34;;;;;;;6.20;1.80;;;;;;;;;;5098717;28;21103;-70
2023/08/30 10:09:03;;;;;;;3.27;1.40;;;;;;;;;;5101819;28;20205;-70
2023/08/30 10:11:33;;;;;;;3.07;1.43;;;;;;;;;;5105754;28;20220;-70
2023/08/30 10:14:01;;;;;;;3.67;1.70;;;;;;;;;;5101740;28;20198;-71
2023/08/30 10:16:31;;;;;;;2.03;1.60;;;;;;;;;;5116741;28;20216;-70
2023/08/30 10:19:02;;;;;;;1.67;1.50;;;;;;;;;;5105045;28;20197;-68
2023/08/30 10:21:36;;;;;;;1.83;1.50;;;;;;;;;;5104890;27;20712;-69
2023/08/30 10:24:05;;;;;;;2.63;1.57;;;;;;;;;;5100712;28;20198;-70
2023/08/30 10:26:53;;;;;;;3.00;1.50;;;;;;;;;;5097342;28;20198;-69
2023/08/30 10:29:23;;;;;;;2.30;1.40;;;;;;;;;;5097502;28;20247;-70
2023/08/30 10:31:51;;;;;;;3.03;1.50;;;;;;;;;;5108206;28;20229;-71
2023/08/30 10:34:21;;;;;;;2.20;1.93;;;;;;;;;;5096833;28;20221;-71
2023/08/30 10:37:00;;;;;;;1.20;1.20;;;;;;;;;;5109457;28;20269;-71
2023/08/30 10:39:35;;;;;;;5.93;1.73;;;;;;;;;;5105020;28;20657;-70
2023/08/30 10:42:08;;;;;;;2.73;1.47;;;;;;;;;;5101169;28;20201;-70
2023/08/30 10:44:47;;;;;;;2.57;1.67;;;;;;;;;;5102005;28;20671;-69
2023/08/30 10:47:26;;;;;;;1.80;1.20;;;;;;;;;;5115877;28;20201;-71
2023/08/30 10:49:55;;;;;;;1.63;1.30;;;;;;;;;;5113891;28;20237;-70
2023/08/30 10:52:25;;;;;;;4.23;1.60;;;;;;;;;;5113490;28;20205;-70
2023/08/30 10:54:53;;;;;;;1.50;1.40;;;;;;;;;;5101759;28;20632;-68
2023/08/30 10:57:22;;;;;;;16.90;13.67;;;;;;;;;;5098826;28;20206;-72
2023/08/30 11:00:07;;;;;;;1.90;1.80;;;;;;;;;;5109023;28;20205;-69
2023/08/30 11:02:36;;;;;;;2.80;1.80;;;;;;;;;;5115828;28;20229;-66
2023/08/30 11:05:04;;;;;;;1.67;1.57;;;;;;;;;;5108514;28;20199;-68
2023/08/30 11:07:34;;;;;;;2.33;1.77;;;;;;;;;;5111831;28;20644;-63
2023/08/30 11:10:03;;;;;;;1.83;1.50;;;;;;;;;;5105571;28;21807;-63
2023/08/30 11:12:31;;;;;;;1.90;1.57;;;;;;;;;;5109651;28;20194;-64
2023/08/30 11:14:59;;;;;;;1.70;1.40;;;;;;;;;;5101445;28;20253;-65
2023/08/30 11:17:27;;;;;;;1.70;1.60;;;;;;;;;;5107831;28;20225;-68
2023/08/30 11:19:58;;;;;;;1.67;1.23;;;;;;;;;;5097815;28;20221;-64
2023/08/30 11:22:26;;;;;;;1.87;1.40;;;;;;;;;;5103928;28;20205;-67
2023/08/30 11:24:56;;;;;;;2.80;1.50;;;;;;;;;;5106926;28;20204;-67
2023/08/30 11:27:24;;;;;;;2.93;1.30;;;;;;;;;;5104700;28;20231;-69
2023/08/30 11:29:54;;;;;;;1.40;1.27;;;;;;;;;;5104798;28;20253;-67
2023/08/30 11:32:22;;;;;;;1.23;1.10;;;;;;;;;;5107258;28;20251;-66
2023/08/30 11:34:57;;;;;;;1.27;1.00;;;;;;;;;;5100920;28;20614;-63
2023/08/30 11:37:27;;;;;;;1.30;1.17;;;;;;;;;;5101456;28;20214;-65
2023/08/30 11:39:57;;;;;;;2.30;1.50;;;;;;;;;;5104438;28;20234;-65
2023/08/30 11:42:26;;;;;;;1.57;1.47;;;;;;;;;;5097787;28;20251;-67
2023/08/30 11:44:54;;;;;;;1.50;1.40;;;;;;;;;;5100592;28;20202;-65
2023/08/30 11:47:24;;;;;;;4.27;1.77;;;;;;;;;;5104625;28;20568;-64
2023/08/30 11:49:53;;;;;;;1.50;1.40;;;;;;;;;;5105812;28;20194;-65
2023/08/30 11:52:22;;;;;;;3.00;1.50;;;;;;;;;;5106914;28;20243;-63
2023/08/30 11:54:51;;;;;;;2.97;1.63;;;;;;;;;;5102220;28;20205;-64
2023/08/30 11:57:21;;;;;;;1.60;1.50;;;;;;;;;;5117494;28;20212;-65
2023/08/30 11:59:50;;;;;;;2.20;1.33;;;;;;;;;;5111138;28;20538;-68
2023/08/30 12:02:19;;;;;;;2.70;1.50;;;;;;;;;;5118177;28;20261;-69
2023/08/30 12:04:47;;;;;;;1.40;1.30;;;;;;;;;;5118417;28;20208;-72
2023/08/30 12:07:22;;;;;;;4.00;1.60;;;;;;;;;;5118412;28;20249;-72
2023/08/30 12:09:51;;;;;;;1.70;1.57;;;;;;;;;;5117906;28;20689;-71
2023/08/30 12:12:19;;;;;;;1.60;1.50;;;;;;;;;;5115526;28;20231;-69
2023/08/30 12:14:55;;;;;;;3.40;1.60;;;;;;;;;;5118257;28;20573;-69
2023/08/30 12:17:23;;;;;;;4.57;1.60;;;;;;;;;;5118289;28;20201;-68
2023/08/30 12:19:56;;;;;;;4.60;1.90;;;;;;;;;;5118356;28;20205;-68
2023/08/30 12:22:24;;;;;;;1.20;1.10;;;;;;;;;;5118469;28;20202;-68
2023/08/30 12:24:53;;;;;;;1.23;1.20;;;;;;;;;;5112683;28;20204;-67
2023/08/30 12:27:21;;;;;;;1.43;1.30;;;;;;;;;;5116456;28;20214;-67
2023/08/30 12:29:50;;;;;;;2.77;1.30;;;;;;;;;;5117688;28;20251;-67
2023/08/30 12:32:18;;;;;;;1.43;1.33;;;;;;;;;;5116221;28;20608;-67
2023/08/30 12:34:46;;;;;;;2.00;1.57;;;;;;;;;;5116877;28;20250;-66
2023/08/30 12:37:14;;;;;;;3.20;1.30;;;;;;;;;;5115881;28;20590;-66
2023/08/30 12:39:42;;;;;;;1.60;1.10;;;;;;;;;;5105844;28;20212;-66
2023/08/30 12:42:10;;;;;;;1.27;1.17;;;;;;;;;;5116569;28;20211;-67
2023/08/30 12:44:39;;;;;;;2.00;1.47;;;;;;;;;;5105837;28;20239;-66
2023/08/30 12:47:08;;;;;;;9.73;1.90;;;;;;;;;;5101206;28;20198;-67
2023/08/30 12:49:36;;;;;;;1.57;1.47;;;;;;;;;;5101001;28;20257;-67
2023/08/30 12:52:05;;;;;;;1.07;1.00;;;;;;;;;;5100136;28;20275;-67
2023/08/30 12:54:33;;;;;;;1.63;1.20;;;;;;;;;;5099554;28;20212;-66
2023/08/30 12:57:01;;;;;;;1.40;1.03;;;;;;;;;;5115279;28;20230;-67
2023/08/30 12:59:29;;;;;;;2.13;1.30;;;;;;;;;;5106633;28;20206;-67
2023/08/30 13:01:57;;;;;;;1.57;1.27;;;;;;;;;;5112893;28;20233;-65
2023/08/30 13:04:26;;;;;;;0.90;0.90;;;;;;;;;;5100409;28;20198;-67
2023/08/30 13:06:55;;;;;;;1.40;1.30;;;;;;;;;;5112515;28;20608;-67
2023/08/30 13:09:23;;;;;;;1.37;1.27;;;;;;;;;;5103523;28;20202;-66
2023/08/30 13:11:51;;;;;;;9.50;1.70;;;;;;;;;;5117628;28;20234;-67
2023/08/30 13:14:19;;;;;;;4.17;1.67;;;;;;;;;;5100240;28;20204;-68
2023/08/30 13:16:47;;;;;;;1.50;1.40;;;;;;;;;;5100328;28;20221;-66
2023/08/30 13:19:15;;;;;;;1.83;1.50;;;;;;;;;;5101698;28;20207;-66
2023/08/30 13:21:45;;;;;;;1.80;1.10;;;;;;;;;;5103697;28;20225;-67
2023/08/30 13:24:13;;;;;;;1.60;1.37;;;;;;;;;;5100577;28;20212;-67
2023/08/30 13:26:41;;;;;;;1.60;1.40;;;;;;;;;;5117453;28;20648;-67
2023/08/30 13:29:12;;;;;;;2.00;1.30;;;;;;;;;;5103159;28;20205;-66
2023/08/30 13:31:40;;;;;;;1.87;1.60;;;;;;;;;;5112257;28;20230;-67
2023/08/30 13:34:08;;;;;;;1.40;1.20;;;;;;;;;;5113512;28;20204;-66
2023/08/30 13:36:36;;;;;;;1.43;1.33;;;;;;;;;;5105631;28;20235;-68
2023/08/30 13:39:06;;;;;;;1.60;1.50;;;;;;;;;;5104574;28;20197;-67
2023/08/30 13:41:34;;;;;;;1.27;1.17;;;;;;;;;;5120826;28;20715;-67
2023/08/30 13:44:03;;;;;;;3.23;1.53;;;;;;;;;;5119011;28;20205;-67
2023/08/30 13:46:31;;;;;;;1.70;1.60;;;;;;;;;;5100367;28;20292;-67
2023/08/30 13:48:59;;;;;;;1.73;1.50;;;;;;;;;;5105880;28;20207;-65
2023/08/30 13:51:27;;;;;;;2.27;1.53;;;;;;;;;;5110894;28;20684;-66
2023/08/30 13:53:55;;;;;;;1.70;1.30;;;;;;;;;;5114050;28;20204;-66
2023/08/30 13:56:25;;;;;;;1.47;1.37;;;;;;;;;;5113218;28;20312;-67
2023/08/30 13:58:57;;;;;;;1.83;1.60;;;;;;;;;;5110100;28;20300;-66
2023/08/30 14:01:25;;;;;;;2.40;1.70;;;;;;;;;;5110485;28;20240;-68
2023/08/30 14:03:53;;;;;;;4.43;1.80;;;;;;;;;;5120639;28;20207;-67
2023/08/30 14:06:21;;;;;;;1.97;1.50;;;;;;;;;;5120669;28;20568;-68
2023/08/30 14:08:49;;;;;;;3.20;1.40;;;;;;;;;;5120491;28;20577;-68
2023/08/30 14:11:17;;;;;;;2.57;1.70;;;;;;;;;;5114817;28;20227;-68
2023/08/30 14:13:46;;;;;;;2.83;1.30;;;;;;;;;;5120242;28;20233;-68
2023/08/30 14:16:14;;;;;;;2.73;1.53;;;;;;;;;;5120491;28;20200;-67
2023/08/30 14:18:45;;;;;;;1.73;1.37;;;;;;;;;;5120619;28;20731;-67
2023/08/30 14:21:14;;;;;;;4.07;2.03;;;;;;;;;;5121905;27;20222;-67
2023/08/30 14:23:42;;;;;;;2.33;1.63;;;;;;;;;;5107216;28;20209;-67
2023/08/30 14:26:12;;;;;;;2.60;1.53;;;;;;;;;;5119166;28;20577;-67
2023/08/30 14:28:40;;;;;;;4.63;1.43;;;;;;;;;;5116519;28;20222;-67
2023/08/30 14:31:10;;;;;;;1.27;1.17;;;;;;;;;;5104940;28;20223;-68
2023/08/30 14:33:38;;;;;;;2.33;1.90;;;;;;;;;;5106173;28;20200;-68
2023/08/30 14:36:10;;;;;;;1.63;1.47;;;;;;;;;;5119993;28;20269;-68
2023/08/30 14:38:38;;;;;;;2.63;1.30;;;;;;;;;;5119365;28;20239;-66
2023/08/30 14:41:06;;;;;;;1.50;1.40;;;;;;;;;;5120018;28;20229;-66
2023/08/30 14:43:34;;;;;;;1.97;1.50;;;;;;;;;;5105596;27;20570;-66
2023/08/30 14:46:03;;;;;;;1.57;1.30;;;;;;;;;;5120495;28;20649;-66
2023/08/30 14:48:40;;;;;;;2.03;1.13;;;;;;;;;;5109334;28;20283;-67
2023/08/30 14:51:09;;;;;;;2.90;1.67;;;;;;;;;;5108430;28;20219;-68
2023/08/30 14:53:37;;;;;;;2.63;1.93;;;;;;;;;;5102218;28;20256;-68